sensor_id;sensor_type;location;lat;lon;timestamp;pressure;altitude;pressure_sealevel;temperature;humidity
68544;BME280;55534;52.222;5.156;2023-06-22T00:01:52;102021.47;;;19.39;100.00
68544;BME280;55534;52.222;5.156;2023-06-22T00:04:17;101973.16;;;19.08;100.00
68544;BME280;55534;52.222;5.156;2023-06-22T00:06:43;101941.69;;;18.90;100.00
68544;BME280;55534;52.222;5.156;2023-06-22T00:09:08;101971.59;;;19.10;100.00
68544;BME280;55534;52.222;5.156;2023-06-22T00:11:35;102002.34;;;19.28;100.00
68544;BME280;55534;52.222;5.156;2023-06-22T00:14:01;101964.19;;;19.02;100.00
68544;BME280;55534;52.222;5.156;2023-06-22T00:16:27;102016.28;;;19.32;100.00
68544;BME280;55534;52.222;5.156;2023-06-22T00:18:52;102002.13;;;19.18;100.00
68544;BME280;55534;52.222;5.156;2023-06-22T00:21:17;102017.06;;;19.29;100.00
68544;BME280;55534;52.222;5.156;2023-06-22T00:23:45;101979.97;;;19.09;100.00
68544;BME280;55534;52.222;5.156;2023-06-22T00:26:11;101989.88;;;19.05;100.00
68544;BME280;55534;52.222;5.156;2023-06-22T00:28:36;101982.31;;;19.03;100.00
68544;BME280;55534;52.222;5.156;2023-06-22T00:31:02;101957.69;;;18.83;100.00
68544;BME280;55534;52.222;5.156;2023-06-22T00:33:27;101957.63;;;18.86;100.00
68544;BME280;55534;52.222;5.156;2023-06-22T00:35:53;101966.88;;;18.98;100.00
68544;BME280;55534;52.222;5.156;2023-06-22T00:38:19;102003.97;;;19.22;100.00
68544;BME280;55534;52.222;5.156;2023-06-22T00:40:44;101946.69;;;18.84;100.00
68544;BME280;55534;52.222;5.156;2023-06-22T00:43:10;101948.69;;;18.76;100.00
68544;BME280;55534;52.222;5.156;2023-06-22T00:45:35;101973.69;;;18.99;100.00
68544;BME280;55534;52.222;5.156;2023-06-22T00:48:01;101933.25;;;18.71;100.00
68544;BME280;55534;52.222;5.156;2023-06-22T00:50:30;101983.34;;;19.09;100.00
68544;BME280;55534;52.222;5.156;2023-06-22T00:53:00;101795.25;;;17.75;100.00
68544;BME280;55534;52.222;5.156;2023-06-22T00:55:26;101948.25;;;18.82;100.00
68544;BME280;55534;52.222;5.156;2023-06-22T00:57:53;101957.03;;;18.75;100.00
68544;BME280;55534;52.222;5.156;2023-06-22T01:00:22;101965.25;;;18.84;100.00
68544;BME280;55534;52.222;5.156;2023-06-22T01:02:51;101900.22;;;18.32;100.00
68544;BME280;55534;52.222;5.156;2023-06-22T01:05:18;101916.75;;;18.40;100.00
68544;BME280;55534;52.222;5.156;2023-06-22T01:16:01;101977.94;;;18.69;100.00
68544;BME280;55534;52.222;5.156;2023-06-22T01:18:30;101938.25;;;18.42;100.00
68544;BME280;55534;52.222;5.156;2023-06-22T01:20:56;101977.63;;;18.64;100.00
68544;BME280;55534;52.222;5.156;2023-06-22T01:31:10;101952.25;;;18.42;100.00
68544;BME280;55534;52.222;5.156;2023-06-22T01:33:39;101932.09;;;18.25;100.00
68544;BME280;55534;52.222;5.156;2023-06-22T01:36:06;101922.47;;;18.11;100.00
68544;BME280;55534;52.222;5.156;2023-06-22T01:38:32;101899.72;;;17.90;100.00
68544;BME280;55534;52.222;5.156;2023-06-22T01:40:59;101943.19;;;18.16;100.00
68544;BME280;55534;52.222;5.156;2023-06-22T01:43:27;101951.81;;;18.20;100.00
68544;BME280;55534;52.222;5.156;2023-06-22T01:45:55;101916.75;;;17.89;100.00
68544;BME280;55534;52.222;5.156;2023-06-22T01:48:21;101959.38;;;18.22;100.00
68544;BME280;55534;52.222;5.156;2023-06-22T01:50:47;101887.78;;;17.75;100.00
68544;BME280;55534;52.222;5.156;2023-06-22T01:53:12;101940.59;;;18.13;100.00
68544;BME280;55534;52.222;5.156;2023-06-22T01:55:37;101953.25;;;18.25;100.00
68544;BME280;55534;52.222;5.156;2023-06-22T01:58:03;101756.38;;;16.90;100.00
68544;BME280;55534;52.222;5.156;2023-06-22T02:00:35;101836.25;;;17.32;100.00
68544;BME280;55534;52.222;5.156;2023-06-22T02:03:23;101857.84;;;17.54;100.00
68544;BME280;55534;52.222;5.156;2023-06-22T02:06:20;101951.88;;;18.17;100.00
68544;BME280;55534;52.222;5.156;2023-06-22T02:08:53;101919.25;;;17.96;100.00
68544;BME280;55534;52.222;5.156;2023-06-22T02:11:21;101834.34;;;17.33;100.00
68544;BME280;55534;52.222;5.156;2023-06-22T02:13:49;101880.81;;;17.61;100.00
68544;BME280;55534;52.222;5.156;2023-06-22T02:16:16;101881.16;;;17.63;100.00
68544;BME280;55534;52.222;5.156;2023-06-22T02:18:47;101927.25;;;17.93;100.00
68544;BME280;55534;52.222;5.156;2023-06-22T02:21:17;101949.34;;;18.06;100.00
68544;BME280;55534;52.222;5.156;2023-06-22T02:23:42;101894.34;;;17.67;100.00
68544;BME280;55534;52.222;5.156;2023-06-22T02:26:08;101872.56;;;17.55;100.00
68544;BME280;55534;52.222;5.156;2023-06-22T02:28:33;101865.81;;;17.51;100.00
68544;BME280;55534;52.222;5.156;2023-06-22T02:30:59;101951.31;;;18.02;100.00
68544;BME280;55534;52.222;5.156;2023-06-22T02:33:24;101886.88;;;17.58;100.00
68544;BME280;55534;52.222;5.156;2023-06-22T02:35:50;101887.53;;;17.66;100.00
68544;BME280;55534;52.222;5.156;2023-06-22T02:38:15;101892.09;;;17.65;100.00
68544;BME280;55534;52.222;5.156;2023-06-22T02:40:43;101892.47;;;17.63;100.00
68544;BME280;55534;52.222;5.156;2023-06-22T02:43:09;101894.03;;;17.61;100.00
68544;BME280;55534;52.222;5.156;2023-06-22T02:45:34;101928.13;;;17.82;100.00
68544;BME280;55534;52.222;5.156;2023-06-22T02:48:00;101906.00;;;17.69;100.00
68544;BME280;55534;52.222;5.156;2023-06-22T02:50:25;101883.94;;;17.52;100.00
68544;BME280;55534;52.222;5.156;2023-06-22T02:52:52;101897.03;;;17.63;100.00
68544;BME280;55534;52.222;5.156;2023-06-22T02:55:17;101903.09;;;17.60;100.00
68544;BME280;55534;52.222;5.156;2023-06-22T02:57:50;101923.22;;;17.81;100.00
68544;BME280;55534;52.222;5.156;2023-06-22T03:00:19;101915.03;;;17.72;100.00
68544;BME280;55534;52.222;5.156;2023-06-22T03:02:47;101848.44;;;17.22;100.00
68544;BME280;55534;52.222;5.156;2023-06-22T03:05:13;101933.50;;;17.75;100.00
68544;BME280;55534;52.222;5.156;2023-06-22T03:07:42;101902.78;;;17.54;100.00
68544;BME280;55534;52.222;5.156;2023-06-22T03:10:09;101894.59;;;17.45;100.00
68544;BME280;55534;52.222;5.156;2023-06-22T03:12:39;101920.81;;;17.63;100.00
68544;BME280;55534;52.222;5.156;2023-06-22T03:15:06;101909.19;;;17.57;100.00
68544;BME280;55534;52.222;5.156;2023-06-22T03:17:33;101895.34;;;17.46;100.00
68544;BME280;55534;52.222;5.156;2023-06-22T03:19:58;101899.78;;;17.52;100.00
68544;BME280;55534;52.222;5.156;2023-06-22T03:22:24;101843.97;;;17.16;100.00
68544;BME280;55534;52.222;5.156;2023-06-22T03:24:50;101890.44;;;17.44;100.00
68544;BME280;55534;52.222;5.156;2023-06-22T03:27:16;101899.13;;;17.44;100.00
68544;BME280;55534;52.222;5.156;2023-06-22T03:29:41;101837.75;;;16.99;100.00
68544;BME280;55534;52.222;5.156;2023-06-22T03:32:06;101847.84;;;17.08;100.00
68544;BME280;55534;52.222;5.156;2023-06-22T03:34:32;101847.06;;;17.11;100.00
68544;BME280;55534;52.222;5.156;2023-06-22T03:37:04;101908.72;;;17.62;100.00
68544;BME280;55534;52.222;5.156;2023-06-22T03:39:29;101852.59;;;17.20;100.00
68544;BME280;55534;52.222;5.156;2023-06-22T03:41:56;101843.56;;;17.17;100.00
68544;BME280;55534;52.222;5.156;2023-06-22T03:44:23;101888.16;;;17.46;100.00
68544;BME280;55534;52.222;5.156;2023-06-22T03:46:48;101891.53;;;17.47;100.00
68544;BME280;55534;52.222;5.156;2023-06-22T03:49:14;101834.31;;;17.02;100.00
68544;BME280;55534;52.222;5.156;2023-06-22T03:51:39;101829.06;;;16.98;100.00
68544;BME280;55534;52.222;5.156;2023-06-22T03:54:04;101854.63;;;17.09;100.00
68544;BME280;55534;52.222;5.156;2023-06-22T03:56:30;101852.38;;;17.07;100.00
68544;BME280;55534;52.222;5.156;2023-06-22T03:58:56;101894.03;;;17.30;100.00
68544;BME280;55534;52.222;5.156;2023-06-22T04:01:21;101834.00;;;16.96;100.00
68544;BME280;55534;52.222;5.156;2023-06-22T04:03:47;101901.41;;;17.42;100.00
68544;BME280;55534;52.222;5.156;2023-06-22T04:06:14;101886.13;;;17.27;100.00
68544;BME280;55534;52.222;5.156;2023-06-22T04:08:40;101821.63;;;16.90;100.00
68544;BME280;55534;52.222;5.156;2023-06-22T04:11:06;101843.69;;;17.07;100.00
68544;BME280;55534;52.222;5.156;2023-06-22T04:13:31;101815.28;;;16.83;100.00
68544;BME280;55534;52.222;5.156;2023-06-22T04:15:57;101882.63;;;17.33;100.00
68544;BME280;55534;52.222;5.156;2023-06-22T04:18:22;101797.56;;;16.80;100.00
68544;BME280;55534;52.222;5.156;2023-06-22T04:20:47;101826.75;;;17.04;100.00
68544;BME280;55534;52.222;5.156;2023-06-22T04:23:13;101803.91;;;16.90;100.00
68544;BME280;55534;52.222;5.156;2023-06-22T04:25:39;101744.28;;;16.55;100.00
68544;BME280;55534;52.222;5.156;2023-06-22T04:28:04;101877.91;;;17.52;100.00
68544;BME280;55534;52.222;5.156;2023-06-22T04:30:32;101825.50;;;17.12;100.00
68544;BME280;55534;52.222;5.156;2023-06-22T04:32:58;101860.19;;;17.49;100.00
68544;BME280;55534;52.222;5.156;2023-06-22T04:35:24;101854.19;;;17.44;100.00
68544;BME280;55534;52.222;5.156;2023-06-22T04:37:50;101852.25;;;17.49;100.00
68544;BME280;55534;52.222;5.156;2023-06-22T04:40:22;101860.09;;;17.56;100.00
68544;BME280;55534;52.222;5.156;2023-06-22T04:42:47;101816.69;;;17.26;100.00
68544;BME280;55534;52.222;5.156;2023-06-22T04:45:19;101879.91;;;17.71;100.00
68544;BME280;55534;52.222;5.156;2023-06-22T04:47:45;101880.59;;;17.75;100.00
68544;BME280;55534;52.222;5.156;2023-06-22T04:50:14;101854.31;;;17.64;100.00
68544;BME280;55534;52.222;5.156;2023-06-22T04:52:40;101849.44;;;17.63;100.00
68544;BME280;55534;52.222;5.156;2023-06-22T04:55:06;101850.88;;;17.68;100.00
68544;BME280;55534;52.222;5.156;2023-06-22T04:57:31;101844.84;;;17.67;100.00
68544;BME280;55534;52.222;5.156;2023-06-22T05:00:01;101878.59;;;17.87;100.00
68544;BME280;55534;52.222;5.156;2023-06-22T05:02:27;101841.81;;;17.69;100.00
68544;BME280;55534;52.222;5.156;2023-06-22T05:04:53;101872.00;;;17.98;100.00
68544;BME280;55534;52.222;5.156;2023-06-22T05:07:22;101866.25;;;18.03;100.00
68544;BME280;55534;52.222;5.156;2023-06-22T05:09:50;101878.13;;;18.19;100.00
68544;BME280;55534;52.222;5.156;2023-06-22T05:12:16;101823.75;;;17.91;100.00
68544;BME280;55534;52.222;5.156;2023-06-22T05:14:41;101781.00;;;17.69;100.00
68544;BME280;55534;52.222;5.156;2023-06-22T05:17:07;101865.19;;;18.25;100.00
68544;BME280;55534;52.222;5.156;2023-06-22T05:19:38;101827.28;;;18.08;100.00
68544;BME280;55534;52.222;5.156;2023-06-22T05:22:04;101819.72;;;18.06;100.00
68544;BME280;55534;52.222;5.156;2023-06-22T05:24:31;101831.44;;;18.09;100.00
68544;BME280;55534;52.222;5.156;2023-06-22T05:26:57;101816.28;;;18.09;100.00
68544;BME280;55534;52.222;5.156;2023-06-22T05:29:22;101861.91;;;18.40;100.00
68544;BME280;55534;52.222;5.156;2023-06-22T05:31:48;101834.16;;;18.25;100.00
68544;BME280;55534;52.222;5.156;2023-06-22T05:34:14;101816.19;;;18.16;100.00
68544;BME280;55534;52.222;5.156;2023-06-22T05:36:39;101883.00;;;18.68;100.00
68544;BME280;55534;52.222;5.156;2023-06-22T05:39:12;101854.91;;;18.50;100.00
68544;BME280;55534;52.222;5.156;2023-06-22T05:41:38;101856.59;;;18.64;100.00
68544;BME280;55534;52.222;5.156;2023-06-22T05:44:04;101852.78;;;18.65;100.00
68544;BME280;55534;52.222;5.156;2023-06-22T05:46:29;101834.03;;;18.56;100.00
68544;BME280;55534;52.222;5.156;2023-06-22T05:48:55;101882.94;;;18.95;100.00
68544;BME280;55534;52.222;5.156;2023-06-22T05:51:20;101889.25;;;19.01;100.00
68544;BME280;55534;52.222;5.156;2023-06-22T05:53:46;101858.47;;;18.87;100.00
68544;BME280;55534;52.222;5.156;2023-06-22T05:56:15;101827.75;;;18.70;100.00
68544;BME280;55534;52.222;5.156;2023-06-22T05:58:40;101876.22;;;19.10;100.00
68544;BME280;55534;52.222;5.156;2023-06-22T06:01:06;101863.03;;;19.07;100.00
68544;BME280;55534;52.222;5.156;2023-06-22T06:03:31;101796.31;;;18.72;100.00
68544;BME280;55534;52.222;5.156;2023-06-22T06:05:57;101895.22;;;19.45;100.00
68544;BME280;55534;52.222;5.156;2023-06-22T06:08:22;101749.59;;;18.41;100.00
68544;BME280;55534;52.222;5.156;2023-06-22T06:10:48;101903.94;;;19.62;100.00
68544;BME280;55534;52.222;5.156;2023-06-22T06:13:14;101904.28;;;19.64;100.00
68544;BME280;55534;52.222;5.156;2023-06-22T06:15:39;101858.22;;;19.38;100.00
68544;BME280;55534;52.222;5.156;2023-06-22T06:18:05;101882.75;;;19.62;100.00
68544;BME280;55534;52.222;5.156;2023-06-22T06:20:32;101911.41;;;19.87;100.00
68544;BME280;55534;52.222;5.156;2023-06-22T06:22:57;101873.41;;;19.74;100.00
68544;BME280;55534;52.222;5.156;2023-06-22T06:25:23;101842.69;;;19.56;100.00
68544;BME280;55534;52.222;5.156;2023-06-22T06:27:50;101903.53;;;20.00;100.00
68544;BME280;55534;52.222;5.156;2023-06-22T06:30:17;101888.03;;;19.98;100.00
68544;BME280;55534;52.222;5.156;2023-06-22T06:32:44;101874.91;;;19.91;100.00
68544;BME280;55534;52.222;5.156;2023-06-22T06:35:11;101890.00;;;20.11;100.00
68544;BME280;55534;52.222;5.156;2023-06-22T06:37:42;101853.34;;;19.89;100.00
68544;BME280;55534;52.222;5.156;2023-06-22T06:40:10;101851.63;;;19.99;100.00
68544;BME280;55534;52.222;5.156;2023-06-22T06:42:40;101868.69;;;20.14;100.00
68544;BME280;55534;52.222;5.156;2023-06-22T06:47:36;101868.00;;;20.27;100.00
68544;BME280;55534;52.222;5.156;2023-06-22T06:50:04;101837.34;;;20.09;100.00
68544;BME280;55534;52.222;5.156;2023-06-22T06:52:30;101832.03;;;20.09;100.00
68544;BME280;55534;52.222;5.156;2023-06-22T06:54:55;101903.59;;;20.62;100.00
68544;BME280;55534;52.222;5.156;2023-06-22T06:57:20;101877.78;;;20.46;100.00
68544;BME280;55534;52.222;5.156;2023-06-22T06:59:48;101874.28;;;20.49;100.00
68544;BME280;55534;52.222;5.156;2023-06-22T07:02:14;101910.34;;;20.80;100.00
68544;BME280;55534;52.222;5.156;2023-06-22T07:04:40;101895.16;;;20.80;100.00
68544;BME280;55534;52.222;5.156;2023-06-22T07:07:06;101809.00;;;20.35;100.00
68544;BME280;55534;52.222;5.156;2023-06-22T07:09:31;101863.38;;;20.76;100.00
68544;BME280;55534;52.222;5.156;2023-06-22T07:11:57;101903.53;;;21.08;100.00
68544;BME280;55534;52.222;5.156;2023-06-22T07:14:22;101888.94;;;21.00;100.00
68544;BME280;55534;52.222;5.156;2023-06-22T07:16:48;101837.66;;;20.73;100.00
68544;BME280;55534;52.222;5.156;2023-06-22T07:19:13;101891.97;;;21.14;100.00
68544;BME280;55534;52.222;5.156;2023-06-22T07:21:38;101875.13;;;21.05;100.00
68544;BME280;55534;52.222;5.156;2023-06-22T07:24:05;101882.19;;;21.11;100.00
68544;BME280;55534;52.222;5.156;2023-06-22T07:26:31;101846.63;;;20.92;100.00
68544;BME280;55534;52.222;5.156;2023-06-22T07:28:57;101861.00;;;21.08;100.00
68544;BME280;55534;52.222;5.156;2023-06-22T07:31:26;101875.59;;;21.16;100.00
68544;BME280;55534;52.222;5.156;2023-06-22T07:33:52;101857.59;;;21.07;100.00
68544;BME280;55534;52.222;5.156;2023-06-22T07:36:18;101806.09;;;20.75;100.00
68544;BME280;55534;52.222;5.156;2023-06-22T07:38:43;101898.63;;;21.48;100.00
68544;BME280;55534;52.222;5.156;2023-06-22T07:41:10;101898.44;;;21.56;100.00
68544;BME280;55534;52.222;5.156;2023-06-22T07:43:36;101892.25;;;21.59;100.00
68544;BME280;55534;52.222;5.156;2023-06-22T07:46:05;101895.13;;;21.64;100.00
68544;BME280;55534;52.222;5.156;2023-06-22T07:48:31;101821.69;;;21.15;100.00
68544;BME280;55534;52.222;5.156;2023-06-22T07:50:56;101889.50;;;21.75;100.00
68544;BME280;55534;52.222;5.156;2023-06-22T07:53:22;101717.34;;;20.60;100.00
68544;BME280;55534;52.222;5.156;2023-06-22T07:55:48;101824.03;;;21.39;100.00
68544;BME280;55534;52.222;5.156;2023-06-22T07:58:14;101882.78;;;21.83;100.00
68544;BME280;55534;52.222;5.156;2023-06-22T08:00:41;101832.03;;;21.52;100.00
68544;BME280;55534;52.222;5.156;2023-06-22T08:03:06;101847.44;;;21.70;100.00
68544;BME280;55534;52.222;5.156;2023-06-22T08:05:32;101889.66;;;22.06;100.00
68544;BME280;55534;52.222;5.156;2023-06-22T08:07:57;101870.50;;;21.99;100.00
68544;BME280;55534;52.222;5.156;2023-06-22T08:10:23;101833.69;;;21.84;100.00
68544;BME280;55534;52.222;5.156;2023-06-22T08:12:48;101830.59;;;21.86;100.00
68544;BME280;55534;52.222;5.156;2023-06-22T08:15:14;101812.84;;;21.83;100.00
68544;BME280;55534;52.222;5.156;2023-06-22T08:17:40;101868.13;;;22.26;100.00
68544;BME280;55534;52.222;5.156;2023-06-22T08:20:06;101830.34;;;22.06;100.00
68544;BME280;55534;52.222;5.156;2023-06-22T08:22:35;101851.78;;;22.24;100.00
68544;BME280;55534;52.222;5.156;2023-06-22T08:25:03;101848.81;;;22.22;100.00
68544;BME280;55534;52.222;5.156;2023-06-22T08:27:30;101800.56;;;21.98;100.00
68544;BME280;55534;52.222;5.156;2023-06-22T08:30:00;101853.59;;;22.40;100.00
68544;BME280;55534;52.222;5.156;2023-06-22T08:32:29;101847.06;;;22.41;100.00
68544;BME280;55534;52.222;5.156;2023-06-22T08:34:56;101848.69;;;22.61;100.00
68544;BME280;55534;52.222;5.156;2023-06-22T08:37:22;101799.81;;;22.33;100.00
68544;BME280;55534;52.222;5.156;2023-06-22T08:39:58;101836.19;;;22.70;100.00
68544;BME280;55534;52.222;5.156;2023-06-22T08:42:24;101825.19;;;22.68;100.00
68544;BME280;55534;52.222;5.156;2023-06-22T08:44:51;101814.19;;;22.57;100.00
68544;BME280;55534;52.222;5.156;2023-06-22T08:47:16;101804.88;;;22.62;100.00
68544;BME280;55534;52.222;5.156;2023-06-22T08:49:42;101857.75;;;23.07;100.00
68544;BME280;55534;52.222;5.156;2023-06-22T08:52:07;101787.34;;;22.74;100.00
68544;BME280;55534;52.222;5.156;2023-06-22T08:54:33;101831.97;;;23.14;100.00
68544;BME280;55534;52.222;5.156;2023-06-22T08:57:00;101839.59;;;23.34;100.00
68544;BME280;55534;52.222;5.156;2023-06-22T08:59:26;101820.94;;;23.34;100.00
68544;BME280;55534;52.222;5.156;2023-06-22T09:01:51;101817.88;;;23.44;100.00
68544;BME280;55534;52.222;5.156;2023-06-22T09:04:17;101824.13;;;23.60;100.00
68544;BME280;55534;52.222;5.156;2023-06-22T09:06:42;101810.91;;;23.56;100.00
68544;BME280;55534;52.222;5.156;2023-06-22T09:09:15;101843.47;;;23.82;100.00
68544;BME280;55534;52.222;5.156;2023-06-22T09:11:41;101730.28;;;23.02;100.00
68544;BME280;55534;52.222;5.156;2023-06-22T09:14:06;101843.47;;;23.82;100.00
68544;BME280;55534;52.222;5.156;2023-06-22T09:16:32;101789.13;;;23.48;100.00
68544;BME280;55534;52.222;5.156;2023-06-22T09:18:58;101784.50;;;23.49;100.00
68544;BME280;55534;52.222;5.156;2023-06-22T09:21:23;101780.69;;;23.50;100.00
68544;BME280;55534;52.222;5.156;2023-06-22T09:23:49;101794.47;;;23.58;100.00
68544;BME280;55534;52.222;5.156;2023-06-22T09:26:20;101838.47;;;23.94;100.00
68544;BME280;55534;52.222;5.156;2023-06-22T09:28:45;101803.88;;;23.81;100.00
68544;BME280;55534;52.222;5.156;2023-06-22T09:31:11;101794.03;;;23.78;100.00
68544;BME280;55534;52.222;5.156;2023-06-22T09:33:37;101812.06;;;24.05;100.00
68544;BME280;55534;52.222;5.156;2023-06-22T09:36:08;101799.59;;;24.02;100.00
68544;BME280;55534;52.222;5.156;2023-06-22T09:38:37;101782.09;;;23.92;100.00
68544;BME280;55534;52.222;5.156;2023-06-22T09:41:04;101840.41;;;24.39;100.00
68544;BME280;55534;52.222;5.156;2023-06-22T09:43:31;101771.69;;;23.94;100.00
68544;BME280;55534;52.222;5.156;2023-06-22T09:45:57;101794.69;;;24.10;100.00
68544;BME280;55534;52.222;5.156;2023-06-22T09:48:23;101846.31;;;24.43;100.00
68544;BME280;55534;52.222;5.156;2023-06-22T09:50:48;101839.63;;;24.39;100.00
68544;BME280;55534;52.222;5.156;2023-06-22T09:53:14;101781.19;;;24.04;100.00
68544;BME280;55534;52.222;5.156;2023-06-22T09:55:39;101812.91;;;24.30;100.00
68544;BME280;55534;52.222;5.156;2023-06-22T09:58:05;101813.38;;;24.28;100.00
68544;BME280;55534;52.222;5.156;2023-06-22T10:00:30;101796.44;;;24.22;100.00
68544;BME280;55534;52.222;5.156;2023-06-22T10:02:56;101826.41;;;24.44;100.00
68544;BME280;55534;52.222;5.156;2023-06-22T10:05:22;101766.66;;;24.05;100.00
68544;BME280;55534;52.222;5.156;2023-06-22T10:07:47;101814.41;;;24.40;100.00
68544;BME280;55534;52.222;5.156;2023-06-22T10:10:13;101816.31;;;24.49;100.00
68544;BME280;55534;52.222;5.156;2023-06-22T10:12:44;101830.13;;;24.56;100.00
68544;BME280;55534;52.222;5.156;2023-06-22T10:15:10;101778.94;;;24.30;100.00
68544;BME280;55534;52.222;5.156;2023-06-22T10:17:36;101827.31;;;24.60;100.00
68544;BME280;55534;52.222;5.156;2023-06-22T10:20:02;101808.47;;;24.54;100.00
68544;BME280;55534;52.222;5.156;2023-06-22T10:22:32;101786.63;;;24.37;100.00
68544;BME280;55534;52.222;5.156;2023-06-22T10:24:57;101807.25;;;24.46;100.00
68544;BME280;55534;52.222;5.156;2023-06-22T10:27:22;101803.56;;;24.43;100.00
68544;BME280;55534;52.222;5.156;2023-06-22T10:29:48;101759.38;;;24.15;100.00
68544;BME280;55534;52.222;5.156;2023-06-22T10:32:13;101709.72;;;23.80;100.00
68544;BME280;55534;52.222;5.156;2023-06-22T10:34:39;101763.38;;;24.19;100.00
68544;BME280;55534;52.222;5.156;2023-06-22T10:37:04;101738.16;;;24.02;100.00
68544;BME280;55534;52.222;5.156;2023-06-22T10:39:30;101731.06;;;23.90;100.00
68544;BME280;55534;52.222;5.156;2023-06-22T10:41:55;101812.03;;;24.42;100.00
68544;BME280;55534;52.222;5.156;2023-06-22T10:44:21;101747.81;;;23.99;100.00
68544;BME280;55534;52.222;5.156;2023-06-22T10:46:46;101811.59;;;24.34;100.00
68544;BME280;55534;52.222;5.156;2023-06-22T10:49:12;101832.81;;;24.47;100.00
68544;BME280;55534;52.222;5.156;2023-06-22T10:51:37;101792.75;;;24.19;100.00
68544;BME280;55534;52.222;5.156;2023-06-22T10:54:03;101778.06;;;23.96;100.00
68544;BME280;55534;52.222;5.156;2023-06-22T10:56:29;101790.41;;;24.03;100.00
68544;BME280;55534;52.222;5.156;2023-06-22T10:58:54;101806.56;;;24.09;100.00
68544;BME280;55534;52.222;5.156;2023-06-22T11:01:20;101833.84;;;24.22;100.00
68544;BME280;55534;52.222;5.156;2023-06-22T11:03:46;101831.31;;;24.27;100.00
68544;BME280;55534;52.222;5.156;2023-06-22T11:06:11;101798.09;;;24.01;100.00
68544;BME280;55534;52.222;5.156;2023-06-22T11:08:36;101785.63;;;23.98;100.00
68544;BME280;55534;52.222;5.156;2023-06-22T11:11:02;101803.00;;;24.02;100.00
68544;BME280;55534;52.222;5.156;2023-06-22T11:13:27;101785.63;;;23.88;100.00
68544;BME280;55534;52.222;5.156;2023-06-22T11:15:53;101796.31;;;23.98;100.00
68544;BME280;55534;52.222;5.156;2023-06-22T11:18:18;101812.66;;;24.09;100.00
68544;BME280;55534;52.222;5.156;2023-06-22T11:20:44;101834.59;;;24.22;100.00
68544;BME280;55534;52.222;5.156;2023-06-22T11:23:09;101804.03;;;24.05;100.00
68544;BME280;55534;52.222;5.156;2023-06-22T11:25:36;101802.53;;;23.95;100.00
68544;BME280;55534;52.222;5.156;2023-06-22T11:28:03;101771.84;;;23.81;100.00
68544;BME280;55534;52.222;5.156;2023-06-22T11:30:29;101830.72;;;24.14;100.00
68544;BME280;55534;52.222;5.156;2023-06-22T11:32:58;101833.28;;;24.09;100.00
68544;BME280;55534;52.222;5.156;2023-06-22T11:35:24;101841.13;;;24.03;100.00
68544;BME280;55534;52.222;5.156;2023-06-22T11:37:49;101778.63;;;23.63;100.00
68544;BME280;55534;52.222;5.156;2023-06-22T11:40:15;101800.88;;;23.69;100.00
68544;BME280;55534;52.222;5.156;2023-06-22T11:42:40;101821.94;;;23.77;100.00
68544;BME280;55534;52.222;5.156;2023-06-22T11:45:06;101802.03;;;23.59;100.00
68544;BME280;55534;52.222;5.156;2023-06-22T11:47:32;101794.88;;;23.47;100.00
68544;BME280;55534;52.222;5.156;2023-06-22T11:49:57;101745.31;;;23.09;100.00
68544;BME280;55534;52.222;5.156;2023-06-22T11:52:22;101713.31;;;22.78;100.00
68544;BME280;55534;52.222;5.156;2023-06-22T11:54:48;101750.94;;;23.11;100.00
68544;BME280;55534;52.222;5.156;2023-06-22T11:57:13;101725.69;;;22.94;100.00
68544;BME280;55534;52.222;5.156;2023-06-22T11:59:39;101764.44;;;23.17;100.00
68544;BME280;55534;52.222;5.156;2023-06-22T12:02:05;101737.16;;;23.03;100.00
68544;BME280;55534;52.222;5.156;2023-06-22T12:04:32;101731.34;;;23.05;100.00
68544;BME280;55534;52.222;5.156;2023-06-22T12:06:58;101773.25;;;23.36;100.00
68544;BME280;55534;52.222;5.156;2023-06-22T12:09:24;101775.16;;;23.35;100.00
68544;BME280;55534;52.222;5.156;2023-06-22T12:11:49;101739.81;;;23.13;100.00
68544;BME280;55534;52.222;5.156;2023-06-22T12:14:14;101730.41;;;22.99;100.00
68544;BME280;55534;52.222;5.156;2023-06-22T12:16:40;101707.59;;;22.88;100.00
68544;BME280;55534;52.222;5.156;2023-06-22T12:19:05;101737.00;;;23.07;100.00
68544;BME280;55534;52.222;5.156;2023-06-22T12:21:31;101706.56;;;22.86;100.00
68544;BME280;55534;52.222;5.156;2023-06-22T12:23:56;101695.72;;;22.80;100.00
68544;BME280;55534;52.222;5.156;2023-06-22T12:26:21;101684.72;;;22.69;100.00
68544;BME280;55534;52.222;5.156;2023-06-22T12:28:47;101747.69;;;23.16;100.00
68544;BME280;55534;52.222;5.156;2023-06-22T12:31:13;101742.00;;;23.05;100.00
68544;BME280;55534;52.222;5.156;2023-06-22T12:33:39;101690.38;;;22.80;100.00
68544;BME280;55534;52.222;5.156;2023-06-22T12:36:04;101720.94;;;22.98;100.00
68544;BME280;55534;52.222;5.156;2023-06-22T12:38:30;101735.38;;;23.09;100.00
68544;BME280;55534;52.222;5.156;2023-06-22T12:40:56;101730.72;;;23.01;100.00
68544;BME280;55534;52.222;5.156;2023-06-22T12:43:21;101743.09;;;23.07;100.00
68544;BME280;55534;52.222;5.156;2023-06-22T12:45:46;101695.09;;;22.76;100.00
68544;BME280;55534;52.222;5.156;2023-06-22T12:48:12;101720.06;;;22.92;100.00
68544;BME280;55534;52.222;5.156;2023-06-22T12:50:38;101713.53;;;22.93;100.00
68544;BME280;55534;52.222;5.156;2023-06-22T12:53:03;101696.59;;;22.77;100.00
68544;BME280;55534;52.222;5.156;2023-06-22T12:55:29;101670.63;;;22.59;100.00